Terminal Aerodrome Forecast
Issued by NWS Brownsville, TX

Home | Current Version | Previous Version | Text Only | Print | Product List | Glossary On
Versions: 1 2 3 4 5 6 7 8 9 10 11 12 13
584
FTUS44 KBRO 161132
TAFBRO
TAF
KBRO 161132Z 1612/1712 12005KT P6SM BKN080
     FM161400 33020G35KT P6SM -RA OVC010
      TEMPO 1614/1618 BKN009
     FM170000 33018G26KT P6SM -RA OVC010
     FM170500 33015G21KT P6SM -RA OVC015 PROB30 1706/1712 5SM -FZRA=

USA.gov is the U.S. government's official web portal to all federal, state and local government web resources and services.